sensor_id;sensor_type;location;lat;lon;timestamp;temperature;humidity
47521;DHT22;32291;52.010;4.446;2023-04-08T00:00:52;8.70;99.90
47521;DHT22;32291;52.010;4.446;2023-04-08T00:01:53;8.70;99.90
47521;DHT22;32291;52.010;4.446;2023-04-08T00:02:56;8.70;99.90
47521;DHT22;32291;52.010;4.446;2023-04-08T00:03:57;8.70;99.90
47521;DHT22;32291;52.010;4.446;2023-04-08T00:04:59;8.60;99.90
47521;DHT22;32291;52.010;4.446;2023-04-08T00:06:00;8.60;99.90
47521;DHT22;32291;52.010;4.446;2023-04-08T00:07:03;8.70;99.90
47521;DHT22;32291;52.010;4.446;2023-04-08T00:08:05;8.60;99.90
47521;DHT22;32291;52.010;4.446;2023-04-08T00:09:07;8.60;99.90
47521;DHT22;32291;52.010;4.446;2023-04-08T00:10:09;8.60;99.90
47521;DHT22;32291;52.010;4.446;2023-04-08T00:11:11;8.60;99.90
47521;DHT22;32291;52.010;4.446;2023-04-08T00:12:13;8.60;99.90
47521;DHT22;32291;52.010;4.446;2023-04-08T00:13:14;8.60;99.90
47521;DHT22;32291;52.010;4.446;2023-04-08T00:14:19;8.60;99.90
47521;DHT22;32291;52.010;4.446;2023-04-08T00:15:20;8.70;99.90
47521;DHT22;32291;52.010;4.446;2023-04-08T00:16:23;8.70;99.90
47521;DHT22;32291;52.010;4.446;2023-04-08T00:17:25;8.70;99.90
47521;DHT22;32291;52.010;4.446;2023-04-08T00:18:27;8.60;99.90
47521;DHT22;32291;52.010;4.446;2023-04-08T00:19:30;8.70;99.90
47521;DHT22;32291;52.010;4.446;2023-04-08T00:20:32;8.70;99.90
47521;DHT22;32291;52.010;4.446;2023-04-08T00:21:34;8.90;99.90
47521;DHT22;32291;52.010;4.446;2023-04-08T00:22:36;8.70;99.90
47521;DHT22;32291;52.010;4.446;2023-04-08T00:23:38;8.70;99.90
47521;DHT22;32291;52.010;4.446;2023-04-08T00:24:40;8.60;99.90
47521;DHT22;32291;52.010;4.446;2023-04-08T00:25:41;8.70;99.90
47521;DHT22;32291;52.010;4.446;2023-04-08T00:26:44;8.60;99.90
47521;DHT22;32291;52.010;4.446;2023-04-08T00:27:46;8.60;99.90
47521;DHT22;32291;52.010;4.446;2023-04-08T00:28:47;8.60;99.90
47521;DHT22;32291;52.010;4.446;2023-04-08T00:29:49;8.60;99.90
47521;DHT22;32291;52.010;4.446;2023-04-08T00:30:52;8.60;99.90
47521;DHT22;32291;52.010;4.446;2023-04-08T00:31:54;8.60;99.90
47521;DHT22;32291;52.010;4.446;2023-04-08T00:32:56;8.60;99.90
47521;DHT22;32291;52.010;4.446;2023-04-08T00:33:58;8.60;99.90
47521;DHT22;32291;52.010;4.446;2023-04-08T00:34:59;8.60;99.90
47521;DHT22;32291;52.010;4.446;2023-04-08T00:36:02;8.60;99.90
47521;DHT22;32291;52.010;4.446;2023-04-08T00:37:04;8.60;99.90
47521;DHT22;32291;52.010;4.446;2023-04-08T00:38:06;8.60;99.90
47521;DHT22;32291;52.010;4.446;2023-04-08T00:39:08;8.60;99.90
47521;DHT22;32291;52.010;4.446;2023-04-08T00:40:10;8.60;99.90
47521;DHT22;32291;52.010;4.446;2023-04-08T00:41:13;8.60;99.90
47521;DHT22;32291;52.010;4.446;2023-04-08T00:42:14;8.60;99.90
47521;DHT22;32291;52.010;4.446;2023-04-08T00:43:17;8.70;99.90
47521;DHT22;32291;52.010;4.446;2023-04-08T00:44:21;8.60;99.90
47521;DHT22;32291;52.010;4.446;2023-04-08T00:45:23;8.60;99.90
47521;DHT22;32291;52.010;4.446;2023-04-08T00:46:24;8.60;99.90
47521;DHT22;32291;52.010;4.446;2023-04-08T00:47:26;8.60;99.90
47521;DHT22;32291;52.010;4.446;2023-04-08T00:48:28;8.60;99.90
47521;DHT22;32291;52.010;4.446;2023-04-08T00:49:31;8.60;99.90
47521;DHT22;32291;52.010;4.446;2023-04-08T00:50:33;8.50;99.90
47521;DHT22;32291;52.010;4.446;2023-04-08T00:51:35;8.60;99.90
47521;DHT22;32291;52.010;4.446;2023-04-08T00:52:37;8.60;99.90
47521;DHT22;32291;52.010;4.446;2023-04-08T00:53:39;8.50;99.90
47521;DHT22;32291;52.010;4.446;2023-04-08T00:54:41;8.60;99.90
47521;DHT22;32291;52.010;4.446;2023-04-08T00:55:43;8.60;99.90
47521;DHT22;32291;52.010;4.446;2023-04-08T00:56:44;8.60;99.90
47521;DHT22;32291;52.010;4.446;2023-04-08T00:57:46;8.50;99.90
47521;DHT22;32291;52.010;4.446;2023-04-08T00:58:50;8.60;99.90
47521;DHT22;32291;52.010;4.446;2023-04-08T00:59:55;8.60;99.90
47521;DHT22;32291;52.010;4.446;2023-04-08T01:01:06;8.60;99.90
47521;DHT22;32291;52.010;4.446;2023-04-08T01:02:49;8.60;99.90
47521;DHT22;32291;52.010;4.446;2023-04-08T01:05:50;8.60;99.90
47521;DHT22;32291;52.010;4.446;2023-04-08T01:07:24;8.60;99.90
47521;DHT22;32291;52.010;4.446;2023-04-08T01:08:29;8.50;99.90
47521;DHT22;32291;52.010;4.446;2023-04-08T01:09:37;8.50;99.90
47521;DHT22;32291;52.010;4.446;2023-04-08T01:10:41;8.50;99.90
47521;DHT22;32291;52.010;4.446;2023-04-08T01:11:49;8.50;99.90
47521;DHT22;32291;52.010;4.446;2023-04-08T01:12:57;8.50;99.90
47521;DHT22;32291;52.010;4.446;2023-04-08T01:14:04;8.50;99.90
47521;DHT22;32291;52.010;4.446;2023-04-08T01:15:11;8.50;99.90
47521;DHT22;32291;52.010;4.446;2023-04-08T01:16:14;8.50;99.90
47521;DHT22;32291;52.010;4.446;2023-04-08T01:17:18;8.50;99.90
47521;DHT22;32291;52.010;4.446;2023-04-08T01:18:23;8.50;99.90
47521;DHT22;32291;52.010;4.446;2023-04-08T01:19:32;8.50;99.90
47521;DHT22;32291;52.010;4.446;2023-04-08T01:20:36;8.50;99.90
47521;DHT22;32291;52.010;4.446;2023-04-08T01:21:39;8.50;99.90
47521;DHT22;32291;52.010;4.446;2023-04-08T01:24:40;8.50;99.90
47521;DHT22;32291;52.010;4.446;2023-04-08T01:25:50;8.50;99.90
47521;DHT22;32291;52.010;4.446;2023-04-08T01:26:55;8.50;99.90
47521;DHT22;32291;52.010;4.446;2023-04-08T01:28:03;8.50;99.90
47521;DHT22;32291;52.010;4.446;2023-04-08T01:29:17;8.50;99.90
47521;DHT22;32291;52.010;4.446;2023-04-08T01:30:20;8.60;99.90
47521;DHT22;32291;52.010;4.446;2023-04-08T01:31:24;8.50;99.90
47521;DHT22;32291;52.010;4.446;2023-04-08T01:32:28;8.50;99.90
47521;DHT22;32291;52.010;4.446;2023-04-08T01:33:31;8.50;99.90
47521;DHT22;32291;52.010;4.446;2023-04-08T01:34:35;8.50;99.90
47521;DHT22;32291;52.010;4.446;2023-04-08T01:35:38;8.50;99.90
47521;DHT22;32291;52.010;4.446;2023-04-08T01:36:43;8.50;99.90
47521;DHT22;32291;52.010;4.446;2023-04-08T01:37:47;8.50;99.90
47521;DHT22;32291;52.010;4.446;2023-04-08T01:38:51;8.50;99.90
47521;DHT22;32291;52.010;4.446;2023-04-08T01:39:54;8.50;99.90
47521;DHT22;32291;52.010;4.446;2023-04-08T01:40:58;8.50;99.90
47521;DHT22;32291;52.010;4.446;2023-04-08T01:42:00;8.50;99.90
47521;DHT22;32291;52.010;4.446;2023-04-08T01:43:05;8.50;99.90
47521;DHT22;32291;52.010;4.446;2023-04-08T01:44:10;8.50;99.90
47521;DHT22;32291;52.010;4.446;2023-04-08T01:45:14;8.50;99.90
47521;DHT22;32291;52.010;4.446;2023-04-08T01:46:18;8.50;99.90
47521;DHT22;32291;52.010;4.446;2023-04-08T01:47:22;8.50;99.90
47521;DHT22;32291;52.010;4.446;2023-04-08T01:48:24;8.50;99.90
47521;DHT22;32291;52.010;4.446;2023-04-08T01:49:28;8.50;99.90
47521;DHT22;32291;52.010;4.446;2023-04-08T01:50:31;8.50;99.90
47521;DHT22;32291;52.010;4.446;2023-04-08T01:51:36;8.50;99.90
47521;DHT22;32291;52.010;4.446;2023-04-08T01:52:39;8.50;99.90
47521;DHT22;32291;52.010;4.446;2023-04-08T01:53:43;8.50;99.90
47521;DHT22;32291;52.010;4.446;2023-04-08T01:54:45;8.50;99.90
47521;DHT22;32291;52.010;4.446;2023-04-08T01:55:51;8.50;99.90
47521;DHT22;32291;52.010;4.446;2023-04-08T01:56:58;8.50;99.90
47521;DHT22;32291;52.010;4.446;2023-04-08T01:58:04;8.50;99.90
47521;DHT22;32291;52.010;4.446;2023-04-08T01:59:11;8.50;99.90
47521;DHT22;32291;52.010;4.446;2023-04-08T02:00:20;8.50;99.90
47521;DHT22;32291;52.010;4.446;2023-04-08T02:01:26;8.50;99.90
47521;DHT22;32291;52.010;4.446;2023-04-08T02:02:31;8.50;99.90
47521;DHT22;32291;52.010;4.446;2023-04-08T02:03:36;8.50;99.90
47521;DHT22;32291;52.010;4.446;2023-04-08T02:04:39;8.50;99.90
47521;DHT22;32291;52.010;4.446;2023-04-08T02:05:40;8.50;99.90
47521;DHT22;32291;52.010;4.446;2023-04-08T02:06:42;8.50;99.90
47521;DHT22;32291;52.010;4.446;2023-04-08T02:07:48;8.40;99.90
47521;DHT22;32291;52.010;4.446;2023-04-08T02:08:51;8.40;99.90
47521;DHT22;32291;52.010;4.446;2023-04-08T02:09:55;8.40;99.90
47521;DHT22;32291;52.010;4.446;2023-04-08T02:10:57;8.30;99.90
47521;DHT22;32291;52.010;4.446;2023-04-08T02:11:59;8.30;99.90
47521;DHT22;32291;52.010;4.446;2023-04-08T02:13:01;8.30;99.90
47521;DHT22;32291;52.010;4.446;2023-04-08T02:14:03;8.30;99.90
47521;DHT22;32291;52.010;4.446;2023-04-08T02:15:05;8.20;99.90
47521;DHT22;32291;52.010;4.446;2023-04-08T02:16:23;8.20;99.90
47521;DHT22;32291;52.010;4.446;2023-04-08T02:18:01;8.20;99.90
47521;DHT22;32291;52.010;4.446;2023-04-08T02:19:17;8.10;99.90
47521;DHT22;32291;52.010;4.446;2023-04-08T02:20:37;8.10;99.90
47521;DHT22;32291;52.010;4.446;2023-04-08T02:21:50;8.00;99.90
47521;DHT22;32291;52.010;4.446;2023-04-08T02:24:07;8.00;99.90
47521;DHT22;32291;52.010;4.446;2023-04-08T02:25:14;8.00;99.90
47521;DHT22;32291;52.010;4.446;2023-04-08T02:26:17;8.00;99.90
47521;DHT22;32291;52.010;4.446;2023-04-08T02:27:20;8.00;99.90
47521;DHT22;32291;52.010;4.446;2023-04-08T02:28:26;8.00;99.90
47521;DHT22;32291;52.010;4.446;2023-04-08T02:29:31;8.10;99.90
47521;DHT22;32291;52.010;4.446;2023-04-08T02:30:41;8.00;99.90
47521;DHT22;32291;52.010;4.446;2023-04-08T02:31:44;8.00;99.90
47521;DHT22;32291;52.010;4.446;2023-04-08T02:32:49;8.00;99.90
47521;DHT22;32291;52.010;4.446;2023-04-08T02:33:51;8.00;99.90
47521;DHT22;32291;52.010;4.446;2023-04-08T02:34:55;8.00;99.90
47521;DHT22;32291;52.010;4.446;2023-04-08T02:36:01;8.00;99.90
47521;DHT22;32291;52.010;4.446;2023-04-08T02:37:04;8.00;99.90
47521;DHT22;32291;52.010;4.446;2023-04-08T02:38:07;8.00;99.90
47521;DHT22;32291;52.010;4.446;2023-04-08T02:39:10;7.90;99.90
47521;DHT22;32291;52.010;4.446;2023-04-08T02:40:41;7.90;99.90
47521;DHT22;32291;52.010;4.446;2023-04-08T02:41:43;7.80;99.90
47521;DHT22;32291;52.010;4.446;2023-04-08T02:42:45;7.80;99.90
47521;DHT22;32291;52.010;4.446;2023-04-08T02:43:46;7.80;99.90
47521;DHT22;32291;52.010;4.446;2023-04-08T02:44:48;7.80;99.90
47521;DHT22;32291;52.010;4.446;2023-04-08T02:45:49;7.70;99.90
47521;DHT22;32291;52.010;4.446;2023-04-08T02:46:51;7.70;99.90
47521;DHT22;32291;52.010;4.446;2023-04-08T02:47:53;7.70;99.90
47521;DHT22;32291;52.010;4.446;2023-04-08T02:48:54;7.60;99.90
47521;DHT22;32291;52.010;4.446;2023-04-08T02:49:56;7.70;99.90
47521;DHT22;32291;52.010;4.446;2023-04-08T02:50:58;7.60;99.90
47521;DHT22;32291;52.010;4.446;2023-04-08T02:51:59;7.60;99.90
47521;DHT22;32291;52.010;4.446;2023-04-08T02:53:02;7.60;99.90
47521;DHT22;32291;52.010;4.446;2023-04-08T02:54:04;7.60;99.90
47521;DHT22;32291;52.010;4.446;2023-04-08T02:55:06;7.60;99.90
47521;DHT22;32291;52.010;4.446;2023-04-08T02:56:10;7.60;99.90
47521;DHT22;32291;52.010;4.446;2023-04-08T02:57:12;7.50;99.90
47521;DHT22;32291;52.010;4.446;2023-04-08T02:58:13;7.50;99.90
47521;DHT22;32291;52.010;4.446;2023-04-08T02:59:16;7.50;99.90
47521;DHT22;32291;52.010;4.446;2023-04-08T03:00:17;7.50;99.90
47521;DHT22;32291;52.010;4.446;2023-04-08T03:01:19;7.50;99.90
47521;DHT22;32291;52.010;4.446;2023-04-08T03:02:21;7.50;99.90
47521;DHT22;32291;52.010;4.446;2023-04-08T03:03:22;7.50;99.90
47521;DHT22;32291;52.010;4.446;2023-04-08T03:04:31;7.50;99.90
47521;DHT22;32291;52.010;4.446;2023-04-08T03:05:33;7.50;99.90
47521;DHT22;32291;52.010;4.446;2023-04-08T03:06:35;7.50;99.90
47521;DHT22;32291;52.010;4.446;2023-04-08T03:07:36;7.50;99.90
47521;DHT22;32291;52.010;4.446;2023-04-08T03:08:38;7.60;99.90
47521;DHT22;32291;52.010;4.446;2023-04-08T03:09:40;7.50;99.90
47521;DHT22;32291;52.010;4.446;2023-04-08T03:10:42;7.60;99.90
47521;DHT22;32291;52.010;4.446;2023-04-08T03:11:44;7.50;99.90
47521;DHT22;32291;52.010;4.446;2023-04-08T03:12:52;7.60;99.90
47521;DHT22;32291;52.010;4.446;2023-04-08T03:13:54;7.60;99.90
47521;DHT22;32291;52.010;4.446;2023-04-08T03:14:56;7.60;99.90
47521;DHT22;32291;52.010;4.446;2023-04-08T03:15:57;7.60;99.90
47521;DHT22;32291;52.010;4.446;2023-04-08T03:16:59;7.60;99.90
47521;DHT22;32291;52.010;4.446;2023-04-08T03:18:02;7.60;99.90
47521;DHT22;32291;52.010;4.446;2023-04-08T03:19:04;7.60;99.90
47521;DHT22;32291;52.010;4.446;2023-04-08T03:20:06;7.60;99.90
47521;DHT22;32291;52.010;4.446;2023-04-08T03:21:09;7.60;99.90
47521;DHT22;32291;52.010;4.446;2023-04-08T03:22:12;7.60;99.90
47521;DHT22;32291;52.010;4.446;2023-04-08T03:23:14;7.60;99.90
47521;DHT22;32291;52.010;4.446;2023-04-08T03:24:16;7.60;99.90
47521;DHT22;32291;52.010;4.446;2023-04-08T03:25:18;7.60;99.90
47521;DHT22;32291;52.010;4.446;2023-04-08T03:26:20;7.70;99.90
47521;DHT22;32291;52.010;4.446;2023-04-08T03:27:22;7.60;99.90
47521;DHT22;32291;52.010;4.446;2023-04-08T03:28:24;7.60;99.90
47521;DHT22;32291;52.010;4.446;2023-04-08T03:29:26;7.60;99.90
47521;DHT22;32291;52.010;4.446;2023-04-08T03:30:28;7.60;99.90
47521;DHT22;32291;52.010;4.446;2023-04-08T03:31:29;7.70;99.90
47521;DHT22;32291;52.010;4.446;2023-04-08T03:32:31;7.80;99.90
47521;DHT22;32291;52.010;4.446;2023-04-08T03:33:33;7.60;99.90
47521;DHT22;32291;52.010;4.446;2023-04-08T03:34:36;7.60;99.90
47521;DHT22;32291;52.010;4.446;2023-04-08T03:35:37;7.60;99.90
47521;DHT22;32291;52.010;4.446;2023-04-08T03:36:39;7.60;99.90
47521;DHT22;32291;52.010;4.446;2023-04-08T03:37:41;7.70;99.90
47521;DHT22;32291;52.010;4.446;2023-04-08T03:38:43;7.70;99.90
47521;DHT22;32291;52.010;4.446;2023-04-08T03:39:45;7.70;99.90
47521;DHT22;32291;52.010;4.446;2023-04-08T03:40:47;7.70;99.90
47521;DHT22;32291;52.010;4.446;2023-04-08T03:41:49;7.70;99.90
47521;DHT22;32291;52.010;4.446;2023-04-08T03:42:51;7.80;99.90
47521;DHT22;32291;52.010;4.446;2023-04-08T03:43:53;7.80;99.90
47521;DHT22;32291;52.010;4.446;2023-04-08T03:44:55;7.80;99.90
47521;DHT22;32291;52.010;4.446;2023-04-08T03:45:57;7.80;99.90
47521;DHT22;32291;52.010;4.446;2023-04-08T03:46:59;7.80;99.90
47521;DHT22;32291;52.010;4.446;2023-04-08T03:48:01;7.80;99.90
47521;DHT22;32291;52.010;4.446;2023-04-08T03:49:03;7.80;99.90
47521;DHT22;32291;52.010;4.446;2023-04-08T03:50:05;7.80;99.90
47521;DHT22;32291;52.010;4.446;2023-04-08T03:51:07;7.80;99.90
47521;DHT22;32291;52.010;4.446;2023-04-08T03:52:09;7.90;99.90
47521;DHT22;32291;52.010;4.446;2023-04-08T03:53:11;7.90;99.90
47521;DHT22;32291;52.010;4.446;2023-04-08T03:54:13;7.90;99.90
47521;DHT22;32291;52.010;4.446;2023-04-08T03:55:14;7.90;99.90
47521;DHT22;32291;52.010;4.446;2023-04-08T03:56:16;7.90;99.90
47521;DHT22;32291;52.010;4.446;2023-04-08T03:57:17;7.90;99.90
47521;DHT22;32291;52.010;4.446;2023-04-08T03:58:19;7.90;99.90
47521;DHT22;32291;52.010;4.446;2023-04-08T03:59:21;7.90;99.90
47521;DHT22;32291;52.010;4.446;2023-04-08T04:00:23;7.90;99.90
47521;DHT22;32291;52.010;4.446;2023-04-08T04:01:25;8.00;99.90
47521;DHT22;32291;52.010;4.446;2023-04-08T04:02:27;8.00;99.90
47521;DHT22;32291;52.010;4.446;2023-04-08T04:03:28;8.00;99.90
47521;DHT22;32291;52.010;4.446;2023-04-08T04:04:30;8.00;99.90
47521;DHT22;32291;52.010;4.446;2023-04-08T04:05:31;8.00;99.90
47521;DHT22;32291;52.010;4.446;2023-04-08T04:06:33;8.00;99.90
47521;DHT22;32291;52.010;4.446;2023-04-08T04:07:35;8.00;99.90
47521;DHT22;32291;52.010;4.446;2023-04-08T04:08:37;8.00;99.90
47521;DHT22;32291;52.010;4.446;2023-04-08T04:09:39;8.00;99.90
47521;DHT22;32291;52.010;4.446;2023-04-08T04:10:41;8.00;99.90
47521;DHT22;32291;52.010;4.446;2023-04-08T04:11:42;8.00;99.90
47521;DHT22;32291;52.010;4.446;2023-04-08T04:12:44;8.00;99.90
47521;DHT22;32291;52.010;4.446;2023-04-08T04:13:46;8.00;99.90
47521;DHT22;32291;52.010;4.446;2023-04-08T04:14:48;8.00;99.90
47521;DHT22;32291;52.010;4.446;2023-04-08T04:15:50;8.00;99.90
47521;DHT22;32291;52.010;4.446;2023-04-08T04:16:52;8.00;99.90
47521;DHT22;32291;52.010;4.446;2023-04-08T04:17:54;8.00;99.90
47521;DHT22;32291;52.010;4.446;2023-04-08T04:18:56;8.00;99.90
47521;DHT22;32291;52.010;4.446;2023-04-08T04:19:57;7.90;99.90
47521;DHT22;32291;52.010;4.446;2023-04-08T04:20:59;7.90;99.90
47521;DHT22;32291;52.010;4.446;2023-04-08T04:22:01;7.90;99.90
47521;DHT22;32291;52.010;4.446;2023-04-08T04:23:03;7.90;99.90
47521;DHT22;32291;52.010;4.446;2023-04-08T04:24:04;7.90;99.90
47521;DHT22;32291;52.010;4.446;2023-04-08T04:25:06;7.90;99.90
47521;DHT22;32291;52.010;4.446;2023-04-08T04:26:09;7.90;99.90
47521;DHT22;32291;52.010;4.446;2023-04-08T04:27:11;7.90;99.90
47521;DHT22;32291;52.010;4.446;2023-04-08T04:28:13;7.90;99.90
47521;DHT22;32291;52.010;4.446;2023-04-08T04:29:16;7.90;99.90
47521;DHT22;32291;52.010;4.446;2023-04-08T04:30:18;7.90;99.90
47521;DHT22;32291;52.010;4.446;2023-04-08T04:31:22;7.90;99.90
47521;DHT22;32291;52.010;4.446;2023-04-08T04:32:28;7.90;99.90
47521;DHT22;32291;52.010;4.446;2023-04-08T04:33:30;8.00;99.90
47521;DHT22;32291;52.010;4.446;2023-04-08T04:34:31;8.00;99.90
47521;DHT22;32291;52.010;4.446;2023-04-08T04:35:33;8.00;99.90
47521;DHT22;32291;52.010;4.446;2023-04-08T04:36:35;8.00;99.90
47521;DHT22;32291;52.010;4.446;2023-04-08T04:37:36;8.00;99.90
47521;DHT22;32291;52.010;4.446;2023-04-08T04:38:38;8.10;99.90
47521;DHT22;32291;52.010;4.446;2023-04-08T04:39:40;8.10;99.90
47521;DHT22;32291;52.010;4.446;2023-04-08T04:40:42;8.10;99.90
47521;DHT22;32291;52.010;4.446;2023-04-08T04:41:44;8.10;99.90
47521;DHT22;32291;52.010;4.446;2023-04-08T04:42:47;8.10;99.90
47521;DHT22;32291;52.010;4.446;2023-04-08T04:43:49;8.10;99.90
47521;DHT22;32291;52.010;4.446;2023-04-08T04:44:51;8.10;99.90
47521;DHT22;32291;52.010;4.446;2023-04-08T04:45:54;8.10;99.90
47521;DHT22;32291;52.010;4.446;2023-04-08T04:46:57;8.10;99.90
47521;DHT22;32291;52.010;4.446;2023-04-08T04:47:59;8.10;99.90
47521;DHT22;32291;52.010;4.446;2023-04-08T04:49:01;8.10;99.90
47521;DHT22;32291;52.010;4.446;2023-04-08T04:50:02;8.10;99.90
47521;DHT22;32291;52.010;4.446;2023-04-08T04:51:04;8.10;99.90
47521;DHT22;32291;52.010;4.446;2023-04-08T04:52:07;8.10;99.90
47521;DHT22;32291;52.010;4.446;2023-04-08T04:53:09;8.10;99.90
47521;DHT22;32291;52.010;4.446;2023-04-08T04:54:10;8.10;99.90
47521;DHT22;32291;52.010;4.446;2023-04-08T04:55:12;8.20;99.90
47521;DHT22;32291;52.010;4.446;2023-04-08T04:56:15;8.20;99.90
47521;DHT22;32291;52.010;4.446;2023-04-08T04:57:17;8.10;99.90
47521;DHT22;32291;52.010;4.446;2023-04-08T04:58:18;8.10;99.90
47521;DHT22;32291;52.010;4.446;2023-04-08T04:59:20;8.10;99.90
47521;DHT22;32291;52.010;4.446;2023-04-08T05:00:22;8.10;99.90
47521;DHT22;32291;52.010;4.446;2023-04-08T05:01:24;8.10;99.90
47521;DHT22;32291;52.010;4.446;2023-04-08T05:02:26;8.30;99.90
47521;DHT22;32291;52.010;4.446;2023-04-08T05:03:28;8.10;99.90
47521;DHT22;32291;52.010;4.446;2023-04-08T05:04:30;8.10;99.90
47521;DHT22;32291;52.010;4.446;2023-04-08T05:05:31;8.10;99.90
47521;DHT22;32291;52.010;4.446;2023-04-08T05:06:33;8.10;99.90
47521;DHT22;32291;52.010;4.446;2023-04-08T05:07:36;8.10;99.90
47521;DHT22;32291;52.010;4.446;2023-04-08T05:08:39;8.10;99.90
47521;DHT22;32291;52.010;4.446;2023-04-08T05:09:41;8.00;99.90
47521;DHT22;32291;52.010;4.446;2023-04-08T05:10:43;8.00;99.90
47521;DHT22;32291;52.010;4.446;2023-04-08T05:11:45;8.00;99.90
47521;DHT22;32291;52.010;4.446;2023-04-08T05:12:47;8.00;99.90
47521;DHT22;32291;52.010;4.446;2023-04-08T05:13:49;8.00;99.90
47521;DHT22;32291;52.010;4.446;2023-04-08T05:14:50;8.00;99.90
47521;DHT22;32291;52.010;4.446;2023-04-08T05:15:52;7.90;99.90
47521;DHT22;32291;52.010;4.446;2023-04-08T05:16:53;7.90;99.90
47521;DHT22;32291;52.010;4.446;2023-04-08T05:17:55;7.90;99.90
47521;DHT22;32291;52.010;4.446;2023-04-08T05:18:57;7.90;99.90
47521;DHT22;32291;52.010;4.446;2023-04-08T05:19:59;7.90;99.90
47521;DHT22;32291;52.010;4.446;2023-04-08T05:21:01;7.90;99.90
47521;DHT22;32291;52.010;4.446;2023-04-08T05:22:03;7.90;99.90
47521;DHT22;32291;52.010;4.446;2023-04-08T05:23:05;7.80;99.90
47521;DHT22;32291;52.010;4.446;2023-04-08T05:24:07;7.90;99.90
47521;DHT22;32291;52.010;4.446;2023-04-08T05:25:09;7.90;99.90
47521;DHT22;32291;52.010;4.446;2023-04-08T05:26:11;7.90;99.90
47521;DHT22;32291;52.010;4.446;2023-04-08T05:27:13;7.90;99.90
47521;DHT22;32291;52.010;4.446;2023-04-08T05:28:15;7.90;99.90
47521;DHT22;32291;52.010;4.446;2023-04-08T05:29:17;7.90;99.90
47521;DHT22;32291;52.010;4.446;2023-04-08T05:30:19;7.90;99.90
47521;DHT22;32291;52.010;4.446;2023-04-08T05:31:21;7.90;99.90
47521;DHT22;32291;52.010;4.446;2023-04-08T05:32:22;8.00;99.90
47521;DHT22;32291;52.010;4.446;2023-04-08T05:33:24;8.00;99.90
47521;DHT22;32291;52.010;4.446;2023-04-08T05:34:26;8.00;99.90
47521;DHT22;32291;52.010;4.446;2023-04-08T05:35:28;8.00;99.90
47521;DHT22;32291;52.010;4.446;2023-04-08T05:36:30;8.00;99.90
47521;DHT22;32291;52.010;4.446;2023-04-08T05:37:32;8.00;99.90
47521;DHT22;32291;52.010;4.446;2023-04-08T05:38:34;8.00;99.90
47521;DHT22;32291;52.010;4.446;2023-04-08T05:39:36;8.00;99.90
47521;DHT22;32291;52.010;4.446;2023-04-08T05:40:37;8.00;99.90
47521;DHT22;32291;52.010;4.446;2023-04-08T05:41:39;8.00;99.90
47521;DHT22;32291;52.010;4.446;2023-04-08T05:42:41;8.00;99.90
47521;DHT22;32291;52.010;4.446;2023-04-08T05:43:43;8.00;99.90
47521;DHT22;32291;52.010;4.446;2023-04-08T05:44:45;8.00;99.90
47521;DHT22;32291;52.010;4.446;2023-04-08T05:45:48;8.00;99.90
47521;DHT22;32291;52.010;4.446;2023-04-08T05:46:51;8.00;99.90
47521;DHT22;32291;52.010;4.446;2023-04-08T05:47:53;8.00;99.90
47521;DHT22;32291;52.010;4.446;2023-04-08T05:48:54;8.00;99.90
47521;DHT22;32291;52.010;4.446;2023-04-08T05:49:56;8.00;99.90
47521;DHT22;32291;52.010;4.446;2023-04-08T05:50:58;8.00;99.90
47521;DHT22;32291;52.010;4.446;2023-04-08T05:52:00;8.10;99.90
47521;DHT22;32291;52.010;4.446;2023-04-08T05:53:02;8.10;99.90
47521;DHT22;32291;52.010;4.446;2023-04-08T05:54:04;8.00;99.90
47521;DHT22;32291;52.010;4.446;2023-04-08T05:55:07;8.10;99.90
47521;DHT22;32291;52.010;4.446;2023-04-08T05:56:09;8.00;99.90
47521;DHT22;32291;52.010;4.446;2023-04-08T05:57:11;8.00;99.90
47521;DHT22;32291;52.010;4.446;2023-04-08T05:58:12;8.00;99.90
47521;DHT22;32291;52.010;4.446;2023-04-08T05:59:14;8.00;99.90
47521;DHT22;32291;52.010;4.446;2023-04-08T06:00:16;8.00;99.90
47521;DHT22;32291;52.010;4.446;2023-04-08T06:01:17;8.00;99.90
47521;DHT22;32291;52.010;4.446;2023-04-08T06:02:19;8.00;99.90
47521;DHT22;32291;52.010;4.446;2023-04-08T06:03:21;7.90;99.90
47521;DHT22;32291;52.010;4.446;2023-04-08T06:04:23;7.90;99.90
47521;DHT22;32291;52.010;4.446;2023-04-08T06:05:25;8.00;99.90
47521;DHT22;32291;52.010;4.446;2023-04-08T06:06:27;7.80;99.90
47521;DHT22;32291;52.010;4.446;2023-04-08T06:07:29;7.90;99.90
47521;DHT22;32291;52.010;4.446;2023-04-08T06:08:32;7.90;99.90
47521;DHT22;32291;52.010;4.446;2023-04-08T06:09:35;7.90;99.90
47521;DHT22;32291;52.010;4.446;2023-04-08T06:10:37;7.90;99.90
47521;DHT22;32291;52.010;4.446;2023-04-08T06:11:38;8.00;99.90
47521;DHT22;32291;52.010;4.446;2023-04-08T06:12:40;7.90;99.90
47521;DHT22;32291;52.010;4.446;2023-04-08T06:13:42;7.90;99.90
47521;DHT22;32291;52.010;4.446;2023-04-08T06:14:44;7.90;99.90
47521;DHT22;32291;52.010;4.446;2023-04-08T06:15:46;7.90;99.90
47521;DHT22;32291;52.010;4.446;2023-04-08T06:16:49;7.90;99.90
47521;DHT22;32291;52.010;4.446;2023-04-08T06:17:51;7.90;99.90
47521;DHT22;32291;52.010;4.446;2023-04-08T06:18:53;7.90;99.90
47521;DHT22;32291;52.010;4.446;2023-04-08T06:19:55;7.90;99.90
47521;DHT22;32291;52.010;4.446;2023-04-08T06:20:56;8.00;99.90
47521;DHT22;32291;52.010;4.446;2023-04-08T06:21:59;8.00;99.90
47521;DHT22;32291;52.010;4.446;2023-04-08T06:23:01;8.00;99.90
47521;DHT22;32291;52.010;4.446;2023-04-08T06:24:02;8.00;99.90
47521;DHT22;32291;52.010;4.446;2023-04-08T06:25:05;8.00;99.90
47521;DHT22;32291;52.010;4.446;2023-04-08T06:26:07;8.00;99.90
47521;DHT22;32291;52.010;4.446;2023-04-08T06:27:10;8.00;99.90
47521;DHT22;32291;52.010;4.446;2023-04-08T06:28:11;8.00;99.90
47521;DHT22;32291;52.010;4.446;2023-04-08T06:29:13;8.10;99.90
47521;DHT22;32291;52.010;4.446;2023-04-08T06:30:15;8.10;99.90
47521;DHT22;32291;52.010;4.446;2023-04-08T06:31:17;8.10;99.90
47521;DHT22;32291;52.010;4.446;2023-04-08T06:32:19;8.20;99.90
47521;DHT22;32291;52.010;4.446;2023-04-08T06:33:22;8.20;99.90
47521;DHT22;32291;52.010;4.446;2023-04-08T06:34:23;8.20;99.90
47521;DHT22;32291;52.010;4.446;2023-04-08T06:35:25;8.30;99.90
47521;DHT22;32291;52.010;4.446;2023-04-08T06:36:27;8.20;99.90
47521;DHT22;32291;52.010;4.446;2023-04-08T06:37:29;8.20;99.90
47521;DHT22;32291;52.010;4.446;2023-04-08T06:38:31;8.30;99.90
47521;DHT22;32291;52.010;4.446;2023-04-08T06:39:33;8.30;99.90
47521;DHT22;32291;52.010;4.446;2023-04-08T06:40:38;8.30;99.90
47521;DHT22;32291;52.010;4.446;2023-04-08T06:41:40;8.30;99.90
47521;DHT22;32291;52.010;4.446;2023-04-08T06:42:42;8.30;99.90
47521;DHT22;32291;52.010;4.446;2023-04-08T06:43:44;8.30;99.90
47521;DHT22;32291;52.010;4.446;2023-04-08T06:44:46;8.30;99.90
47521;DHT22;32291;52.010;4.446;2023-04-08T06:45:48;8.40;99.90
47521;DHT22;32291;52.010;4.446;2023-04-08T06:46:50;8.40;99.90
47521;DHT22;32291;52.010;4.446;2023-04-08T06:47:52;8.40;99.90
47521;DHT22;32291;52.010;4.446;2023-04-08T06:48:56;8.40;99.90
47521;DHT22;32291;52.010;4.446;2023-04-08T06:49:58;8.40;99.90